Lyonsville, New York
Current Conditions -  °F | °C
As of 10:54 AM on Thursday 29 Jan 2015 (Local Time) from KMGJ Reporting Station
Clear Clear  
Wind Chill: 19°   Ceiling: Unl
Heat Index: 19°   Visibility: 10mi
Dew Point:   Wind: 0mph
Humidity: 46%   Direction: NA
Pressure: 30.28"   Gusts: NA
Location:  41.8083°N, 74.2318°W
Report Text: KMGJ 291554Z AUTO 00000KT 10SM CLR M07/M17 A3028 RMK AO2 SLP260 T10721172 TSNO $
Loading
Personal Weather Stations






























Interactive Weather Map New forecast layout! Learn more

10-Day Weather Forecast

Advertisements
Track Severe Weather on mobile